sensor_id;sensor_type;location;lat;lon;timestamp;temperature;humidity
28845;DHT22;15976;47.938;7.758;2022-11-23T00:01:20;10.40;63.80
28845;DHT22;15976;47.938;7.758;2022-11-23T00:03:50;10.30;63.80
28845;DHT22;15976;47.938;7.758;2022-11-23T00:06:17;10.30;63.60
28845;DHT22;15976;47.938;7.758;2022-11-23T00:08:45;10.30;63.60
28845;DHT22;15976;47.938;7.758;2022-11-23T00:11:12;10.30;63.60
28845;DHT22;15976;47.938;7.758;2022-11-23T00:13:40;10.30;63.60
28845;DHT22;15976;47.938;7.758;2022-11-23T00:16:09;10.30;64.50
28845;DHT22;15976;47.938;7.758;2022-11-23T00:18:38;10.30;63.80
28845;DHT22;15976;47.938;7.758;2022-11-23T00:21:10;10.30;63.90
28845;DHT22;15976;47.938;7.758;2022-11-23T00:23:38;10.30;63.90
28845;DHT22;15976;47.938;7.758;2022-11-23T00:26:05;10.30;64.00
28845;DHT22;15976;47.938;7.758;2022-11-23T00:28:33;10.40;64.90
28845;DHT22;15976;47.938;7.758;2022-11-23T00:31:03;10.40;64.30
28845;DHT22;15976;47.938;7.758;2022-11-23T00:33:30;10.40;64.30
28845;DHT22;15976;47.938;7.758;2022-11-23T00:38:32;10.40;64.30
28845;DHT22;15976;47.938;7.758;2022-11-23T00:41:00;10.40;64.40
28845;DHT22;15976;47.938;7.758;2022-11-23T00:43:28;10.40;64.40
28845;DHT22;15976;47.938;7.758;2022-11-23T00:48:42;10.40;64.20
28845;DHT22;15976;47.938;7.758;2022-11-23T00:51:13;10.40;64.20
28845;DHT22;15976;47.938;7.758;2022-11-23T00:53:40;10.40;64.10
28845;DHT22;15976;47.938;7.758;2022-11-23T00:56:08;10.40;64.10
28845;DHT22;15976;47.938;7.758;2022-11-23T00:58:35;10.40;64.10
28845;DHT22;15976;47.938;7.758;2022-11-23T01:01:11;10.40;64.00
28845;DHT22;15976;47.938;7.758;2022-11-23T01:03:42;10.40;64.10
28845;DHT22;15976;47.938;7.758;2022-11-23T01:06:13;10.30;63.90
28845;DHT22;15976;47.938;7.758;2022-11-23T01:08:40;10.40;64.00
28845;DHT22;15976;47.938;7.758;2022-11-23T01:11:10;10.30;63.80
28845;DHT22;15976;47.938;7.758;2022-11-23T01:13:40;10.30;63.50
28845;DHT22;15976;47.938;7.758;2022-11-23T01:16:13;10.20;63.30
28845;DHT22;15976;47.938;7.758;2022-11-23T01:18:51;10.20;63.30
28845;DHT22;15976;47.938;7.758;2022-11-23T01:21:21;10.20;63.30
28845;DHT22;15976;47.938;7.758;2022-11-23T01:23:48;10.10;63.20
28845;DHT22;15976;47.938;7.758;2022-11-23T01:26:15;10.00;63.40
28845;DHT22;15976;47.938;7.758;2022-11-23T01:28:43;10.00;64.30
28845;DHT22;15976;47.938;7.758;2022-11-23T01:31:21;10.00;63.60
28845;DHT22;15976;47.938;7.758;2022-11-23T01:33:53;10.00;63.60
28845;DHT22;15976;47.938;7.758;2022-11-23T01:36:23;10.00;63.40
28845;DHT22;15976;47.938;7.758;2022-11-23T01:38:50;9.90;63.20
28845;DHT22;15976;47.938;7.758;2022-11-23T01:41:25;9.90;63.40
28845;DHT22;15976;47.938;7.758;2022-11-23T01:43:53;9.90;63.60
28845;DHT22;15976;47.938;7.758;2022-11-23T01:46:21;9.90;63.80
28845;DHT22;15976;47.938;7.758;2022-11-23T01:48:51;9.90;64.00
28845;DHT22;15976;47.938;7.758;2022-11-23T01:51:26;9.90;64.10
28845;DHT22;15976;47.938;7.758;2022-11-23T01:53:57;9.90;64.20
28845;DHT22;15976;47.938;7.758;2022-11-23T01:56:29;10.00;64.40
28845;DHT22;15976;47.938;7.758;2022-11-23T01:58:59;9.90;64.30
28845;DHT22;15976;47.938;7.758;2022-11-23T02:01:27;10.00;64.60
28845;DHT22;15976;47.938;7.758;2022-11-23T02:03:58;10.00;64.60
28845;DHT22;15976;47.938;7.758;2022-11-23T02:06:27;10.00;64.40
28845;DHT22;15976;47.938;7.758;2022-11-23T02:08:54;10.00;64.30
28845;DHT22;15976;47.938;7.758;2022-11-23T02:11:22;10.00;64.30
28845;DHT22;15976;47.938;7.758;2022-11-23T02:13:50;10.00;64.30
28845;DHT22;15976;47.938;7.758;2022-11-23T02:16:18;10.00;64.30
28845;DHT22;15976;47.938;7.758;2022-11-23T02:18:47;10.00;64.30
28845;DHT22;15976;47.938;7.758;2022-11-23T02:21:18;10.00;64.40
28845;DHT22;15976;47.938;7.758;2022-11-23T02:24:14;10.00;64.60
28845;DHT22;15976;47.938;7.758;2022-11-23T02:26:38;10.00;64.60
28845;DHT22;15976;47.938;7.758;2022-11-23T02:29:22;10.10;64.60
28845;DHT22;15976;47.938;7.758;2022-11-23T02:31:50;10.10;64.60
28845;DHT22;15976;47.938;7.758;2022-11-23T02:34:17;10.10;64.60
28845;DHT22;15976;47.938;7.758;2022-11-23T02:36:47;10.10;64.60
28845;DHT22;15976;47.938;7.758;2022-11-23T02:39:29;10.20;64.70
28845;DHT22;15976;47.938;7.758;2022-11-23T02:41:57;10.20;64.70
28845;DHT22;15976;47.938;7.758;2022-11-23T02:44:33;10.20;64.70
28845;DHT22;15976;47.938;7.758;2022-11-23T02:47:05;10.20;64.70
28845;DHT22;15976;47.938;7.758;2022-11-23T02:49:33;10.20;64.60
28845;DHT22;15976;47.938;7.758;2022-11-23T02:52:01;10.20;64.60
28845;DHT22;15976;47.938;7.758;2022-11-23T02:54:28;10.20;64.70
28845;DHT22;15976;47.938;7.758;2022-11-23T02:56:56;10.20;64.70
28845;DHT22;15976;47.938;7.758;2022-11-23T02:59:23;10.20;64.60
28845;DHT22;15976;47.938;7.758;2022-11-23T03:01:52;10.20;64.50
28845;DHT22;15976;47.938;7.758;2022-11-23T03:04:19;10.20;64.40
28845;DHT22;15976;47.938;7.758;2022-11-23T03:06:53;10.20;64.20
28845;DHT22;15976;47.938;7.758;2022-11-23T03:09:20;10.20;64.10
28845;DHT22;15976;47.938;7.758;2022-11-23T03:11:48;10.10;64.00
28845;DHT22;15976;47.938;7.758;2022-11-23T03:14:15;10.10;64.00
28845;DHT22;15976;47.938;7.758;2022-11-23T03:16:49;10.10;63.90
28845;DHT22;15976;47.938;7.758;2022-11-23T03:19:18;10.10;64.00
28845;DHT22;15976;47.938;7.758;2022-11-23T03:21:47;10.10;64.10
28845;DHT22;15976;47.938;7.758;2022-11-23T03:24:14;10.10;64.10
28845;DHT22;15976;47.938;7.758;2022-11-23T03:26:43;10.00;64.30
28845;DHT22;15976;47.938;7.758;2022-11-23T03:29:16;10.00;64.50
28845;DHT22;15976;47.938;7.758;2022-11-23T03:31:43;10.10;64.70
28845;DHT22;15976;47.938;7.758;2022-11-23T03:34:14;10.10;64.60
28845;DHT22;15976;47.938;7.758;2022-11-23T03:36:43;10.10;64.50
28845;DHT22;15976;47.938;7.758;2022-11-23T03:39:10;10.10;64.20
28845;DHT22;15976;47.938;7.758;2022-11-23T03:41:49;10.00;63.90
28845;DHT22;15976;47.938;7.758;2022-11-23T03:44:19;10.00;63.60
28845;DHT22;15976;47.938;7.758;2022-11-23T03:46:46;9.90;63.50
28845;DHT22;15976;47.938;7.758;2022-11-23T03:49:13;9.90;63.50
28845;DHT22;15976;47.938;7.758;2022-11-23T03:51:40;9.80;63.40
28845;DHT22;15976;47.938;7.758;2022-11-23T03:54:07;9.70;63.30
28845;DHT22;15976;47.938;7.758;2022-11-23T03:56:34;9.70;63.40
28845;DHT22;15976;47.938;7.758;2022-11-23T03:59:01;9.70;63.50
28845;DHT22;15976;47.938;7.758;2022-11-23T04:01:28;9.60;63.50
28845;DHT22;15976;47.938;7.758;2022-11-23T04:04:02;9.60;63.60
28845;DHT22;15976;47.938;7.758;2022-11-23T04:06:49;9.60;63.50
28845;DHT22;15976;47.938;7.758;2022-11-23T04:09:39;9.50;63.50
28845;DHT22;15976;47.938;7.758;2022-11-23T04:12:19;9.50;63.70
28845;DHT22;15976;47.938;7.758;2022-11-23T04:14:46;9.40;63.70
28845;DHT22;15976;47.938;7.758;2022-11-23T04:17:12;9.40;63.90
28845;DHT22;15976;47.938;7.758;2022-11-23T04:19:40;9.40;63.90
28845;DHT22;15976;47.938;7.758;2022-11-23T04:22:08;9.40;63.90
28845;DHT22;15976;47.938;7.758;2022-11-23T04:24:39;9.40;63.90
28845;DHT22;15976;47.938;7.758;2022-11-23T04:27:07;9.30;63.80
28845;DHT22;15976;47.938;7.758;2022-11-23T04:29:36;9.30;63.80
28845;DHT22;15976;47.938;7.758;2022-11-23T04:32:03;9.30;63.90
28845;DHT22;15976;47.938;7.758;2022-11-23T04:34:30;9.30;64.00
28845;DHT22;15976;47.938;7.758;2022-11-23T04:37:00;9.20;64.00
28845;DHT22;15976;47.938;7.758;2022-11-23T04:39:32;9.20;64.10
28845;DHT22;15976;47.938;7.758;2022-11-23T04:42:22;9.20;63.90
28845;DHT22;15976;47.938;7.758;2022-11-23T04:44:54;9.10;64.00
28845;DHT22;15976;47.938;7.758;2022-11-23T04:47:24;9.10;64.00
28845;DHT22;15976;47.938;7.758;2022-11-23T04:49:52;9.10;64.20
28845;DHT22;15976;47.938;7.758;2022-11-23T04:52:19;9.10;64.20
28845;DHT22;15976;47.938;7.758;2022-11-23T04:54:49;9.00;64.20
28845;DHT22;15976;47.938;7.758;2022-11-23T04:57:16;9.00;64.10
28845;DHT22;15976;47.938;7.758;2022-11-23T04:59:44;9.00;64.20
28845;DHT22;15976;47.938;7.758;2022-11-23T05:02:11;8.90;64.20
28845;DHT22;15976;47.938;7.758;2022-11-23T05:04:46;8.90;64.30
28845;DHT22;15976;47.938;7.758;2022-11-23T05:07:15;8.90;64.20
28845;DHT22;15976;47.938;7.758;2022-11-23T05:09:47;8.80;64.30
28845;DHT22;15976;47.938;7.758;2022-11-23T05:12:17;8.80;64.30
28845;DHT22;15976;47.938;7.758;2022-11-23T05:14:44;8.80;64.40
28845;DHT22;15976;47.938;7.758;2022-11-23T05:17:15;8.80;64.30
28845;DHT22;15976;47.938;7.758;2022-11-23T05:19:44;8.70;64.40
28845;DHT22;15976;47.938;7.758;2022-11-23T05:22:12;8.70;64.40
28845;DHT22;15976;47.938;7.758;2022-11-23T05:24:42;8.60;64.40
28845;DHT22;15976;47.938;7.758;2022-11-23T05:27:14;8.60;64.50
28845;DHT22;15976;47.938;7.758;2022-11-23T05:29:41;8.50;64.30
28845;DHT22;15976;47.938;7.758;2022-11-23T05:32:09;8.50;64.50
28845;DHT22;15976;47.938;7.758;2022-11-23T05:34:37;8.50;64.60
28845;DHT22;15976;47.938;7.758;2022-11-23T05:37:07;8.50;64.60
28845;DHT22;15976;47.938;7.758;2022-11-23T05:39:40;8.50;64.60
28845;DHT22;15976;47.938;7.758;2022-11-23T05:42:07;8.40;64.60
28845;DHT22;15976;47.938;7.758;2022-11-23T05:44:39;8.40;64.70
28845;DHT22;15976;47.938;7.758;2022-11-23T05:47:11;8.40;64.70
28845;DHT22;15976;47.938;7.758;2022-11-23T05:49:39;8.30;64.70
28845;DHT22;15976;47.938;7.758;2022-11-23T05:52:06;8.30;64.80
28845;DHT22;15976;47.938;7.758;2022-11-23T05:54:35;8.30;64.90
28845;DHT22;15976;47.938;7.758;2022-11-23T05:57:09;8.30;64.90
28845;DHT22;15976;47.938;7.758;2022-11-23T05:59:39;8.20;64.80
28845;DHT22;15976;47.938;7.758;2022-11-23T06:02:09;8.20;64.90
28845;DHT22;15976;47.938;7.758;2022-11-23T06:04:36;8.20;65.40
28845;DHT22;15976;47.938;7.758;2022-11-23T06:07:07;8.20;64.90
28845;DHT22;15976;47.938;7.758;2022-11-23T06:09:49;8.20;64.90
28845;DHT22;15976;47.938;7.758;2022-11-23T06:12:16;8.20;64.90
28845;DHT22;15976;47.938;7.758;2022-11-23T06:14:43;8.10;64.90
28845;DHT22;15976;47.938;7.758;2022-11-23T06:17:13;8.10;64.90
28845;DHT22;15976;47.938;7.758;2022-11-23T06:19:47;8.10;64.90
28845;DHT22;15976;47.938;7.758;2022-11-23T06:22:14;8.10;64.90
28845;DHT22;15976;47.938;7.758;2022-11-23T06:24:57;8.10;65.00
28845;DHT22;15976;47.938;7.758;2022-11-23T06:27:52;8.00;65.10
28845;DHT22;15976;47.938;7.758;2022-11-23T06:30:24;8.00;65.10
28845;DHT22;15976;47.938;7.758;2022-11-23T06:32:52;8.00;65.20
28845;DHT22;15976;47.938;7.758;2022-11-23T06:35:21;8.00;65.20
28845;DHT22;15976;47.938;7.758;2022-11-23T06:37:50;8.00;65.10
28845;DHT22;15976;47.938;7.758;2022-11-23T06:40:17;8.00;65.10
28845;DHT22;15976;47.938;7.758;2022-11-23T06:42:45;7.90;65.10
28845;DHT22;15976;47.938;7.758;2022-11-23T06:45:19;7.90;65.30
28845;DHT22;15976;47.938;7.758;2022-11-23T06:47:49;7.90;65.30
28845;DHT22;15976;47.938;7.758;2022-11-23T06:50:17;7.90;65.20
28845;DHT22;15976;47.938;7.758;2022-11-23T06:52:46;7.90;65.30
28845;DHT22;15976;47.938;7.758;2022-11-23T06:55:15;7.90;65.30
28845;DHT22;15976;47.938;7.758;2022-11-23T06:57:42;7.80;65.20
28845;DHT22;15976;47.938;7.758;2022-11-23T07:00:11;7.80;65.30
28845;DHT22;15976;47.938;7.758;2022-11-23T07:02:38;7.80;65.40
28845;DHT22;15976;47.938;7.758;2022-11-23T07:05:05;7.80;65.50
28845;DHT22;15976;47.938;7.758;2022-11-23T07:07:35;7.80;65.60
28845;DHT22;15976;47.938;7.758;2022-11-23T07:10:09;7.80;65.80
28845;DHT22;15976;47.938;7.758;2022-11-23T07:12:49;7.80;65.80
28845;DHT22;15976;47.938;7.758;2022-11-23T07:15:19;7.80;66.70
28845;DHT22;15976;47.938;7.758;2022-11-23T07:17:46;7.80;65.90
28845;DHT22;15976;47.938;7.758;2022-11-23T07:20:14;7.80;65.90
28845;DHT22;15976;47.938;7.758;2022-11-23T07:22:42;7.80;65.70
28845;DHT22;15976;47.938;7.758;2022-11-23T07:25:09;7.80;65.80
28845;DHT22;15976;47.938;7.758;2022-11-23T07:27:37;7.80;65.80
28845;DHT22;15976;47.938;7.758;2022-11-23T07:30:06;7.80;65.80
28845;DHT22;15976;47.938;7.758;2022-11-23T07:32:33;7.70;65.70
28845;DHT22;15976;47.938;7.758;2022-11-23T07:35:01;7.70;65.70
28845;DHT22;15976;47.938;7.758;2022-11-23T07:37:29;7.70;65.70
28845;DHT22;15976;47.938;7.758;2022-11-23T07:39:56;7.70;65.80
28845;DHT22;15976;47.938;7.758;2022-11-23T07:42:28;7.60;65.70
28845;DHT22;15976;47.938;7.758;2022-11-23T07:45:02;7.60;65.70
28845;DHT22;15976;47.938;7.758;2022-11-23T07:47:29;7.60;65.50
28845;DHT22;15976;47.938;7.758;2022-11-23T07:49:57;7.50;65.60
28845;DHT22;15976;47.938;7.758;2022-11-23T07:52:24;7.50;65.70
28845;DHT22;15976;47.938;7.758;2022-11-23T07:54:51;7.50;65.80
28845;DHT22;15976;47.938;7.758;2022-11-23T07:57:18;7.50;65.80
28845;DHT22;15976;47.938;7.758;2022-11-23T07:59:45;7.40;65.80
28845;DHT22;15976;47.938;7.758;2022-11-23T08:02:13;7.40;65.80
28845;DHT22;15976;47.938;7.758;2022-11-23T08:04:41;7.40;66.00
28845;DHT22;15976;47.938;7.758;2022-11-23T08:07:08;7.40;66.00
28845;DHT22;15976;47.938;7.758;2022-11-23T08:09:36;7.40;66.00
28845;DHT22;15976;47.938;7.758;2022-11-23T08:12:03;7.40;66.10
28845;DHT22;15976;47.938;7.758;2022-11-23T08:14:30;7.40;66.20
28845;DHT22;15976;47.938;7.758;2022-11-23T08:16:58;7.40;66.30
28845;DHT22;15976;47.938;7.758;2022-11-23T08:19:25;7.40;66.40
28845;DHT22;15976;47.938;7.758;2022-11-23T08:21:52;7.40;66.40
28845;DHT22;15976;47.938;7.758;2022-11-23T08:24:19;7.40;66.50
28845;DHT22;15976;47.938;7.758;2022-11-23T08:26:46;7.50;66.70
28845;DHT22;15976;47.938;7.758;2022-11-23T08:29:13;7.50;66.70
28845;DHT22;15976;47.938;7.758;2022-11-23T08:31:40;7.50;66.80
28845;DHT22;15976;47.938;7.758;2022-11-23T08:34:07;7.50;66.90
28845;DHT22;15976;47.938;7.758;2022-11-23T08:36:34;7.60;67.00
28845;DHT22;15976;47.938;7.758;2022-11-23T08:39:02;7.60;67.20
28845;DHT22;15976;47.938;7.758;2022-11-23T08:41:29;7.70;67.30
28845;DHT22;15976;47.938;7.758;2022-11-23T08:43:56;7.70;67.30
28845;DHT22;15976;47.938;7.758;2022-11-23T08:46:23;7.70;67.40
28845;DHT22;15976;47.938;7.758;2022-11-23T08:48:50;7.80;67.50
28845;DHT22;15976;47.938;7.758;2022-11-23T08:51:17;7.80;67.50
28845;DHT22;15976;47.938;7.758;2022-11-23T08:53:49;7.80;67.60
28845;DHT22;15976;47.938;7.758;2022-11-23T08:56:16;7.90;67.70
28845;DHT22;15976;47.938;7.758;2022-11-23T08:58:43;7.90;67.70
28845;DHT22;15976;47.938;7.758;2022-11-23T09:01:12;7.90;67.80
28845;DHT22;15976;47.938;7.758;2022-11-23T09:03:40;7.90;67.80
28845;DHT22;15976;47.938;7.758;2022-11-23T09:06:08;7.90;67.80
28845;DHT22;15976;47.938;7.758;2022-11-23T09:08:36;8.00;68.00
28845;DHT22;15976;47.938;7.758;2022-11-23T09:11:08;8.00;68.10
28845;DHT22;15976;47.938;7.758;2022-11-23T09:13:37;8.10;68.20
28845;DHT22;15976;47.938;7.758;2022-11-23T09:16:05;8.10;68.20
28845;DHT22;15976;47.938;7.758;2022-11-23T09:18:32;8.20;68.30
28845;DHT22;15976;47.938;7.758;2022-11-23T09:21:04;8.20;68.30
28845;DHT22;15976;47.938;7.758;2022-11-23T09:23:32;8.20;68.40
28845;DHT22;15976;47.938;7.758;2022-11-23T09:25:59;8.30;68.40
28845;DHT22;15976;47.938;7.758;2022-11-23T09:28:26;8.30;68.50
28845;DHT22;15976;47.938;7.758;2022-11-23T09:30:55;8.30;68.60
28845;DHT22;15976;47.938;7.758;2022-11-23T09:33:23;8.40;68.70
28845;DHT22;15976;47.938;7.758;2022-11-23T09:36:01;8.40;68.70
28845;DHT22;15976;47.938;7.758;2022-11-23T09:38:29;8.50;68.90
28845;DHT22;15976;47.938;7.758;2022-11-23T09:47:12;8.50;68.70
28845;DHT22;15976;47.938;7.758;2022-11-23T09:52:29;8.70;68.90
28845;DHT22;15976;47.938;7.758;2022-11-23T09:55:00;8.70;68.80
28845;DHT22;15976;47.938;7.758;2022-11-23T09:57:32;8.70;69.60
28845;DHT22;15976;47.938;7.758;2022-11-23T10:00:21;8.80;68.80
28845;DHT22;15976;47.938;7.758;2022-11-23T10:02:48;8.80;69.00
28845;DHT22;15976;47.938;7.758;2022-11-23T10:05:21;8.80;68.80
28845;DHT22;15976;47.938;7.758;2022-11-23T10:08:29;8.80;68.80
28845;DHT22;15976;47.938;7.758;2022-11-23T10:11:02;8.90;69.00
28845;DHT22;15976;47.938;7.758;2022-11-23T10:14:10;8.90;69.00
28845;DHT22;15976;47.938;7.758;2022-11-23T10:16:34;9.00;69.10
28845;DHT22;15976;47.938;7.758;2022-11-23T10:22:07;9.10;69.30
28845;DHT22;15976;47.938;7.758;2022-11-23T10:24:45;9.20;69.40
28845;DHT22;15976;47.938;7.758;2022-11-23T10:27:21;9.30;69.20
28845;DHT22;15976;47.938;7.758;2022-11-23T10:29:49;9.40;69.40
28845;DHT22;15976;47.938;7.758;2022-11-23T10:35:14;9.70;68.80
28845;DHT22;15976;47.938;7.758;2022-11-23T10:37:41;9.80;68.60
28845;DHT22;15976;47.938;7.758;2022-11-23T10:40:28;9.80;68.40
28845;DHT22;15976;47.938;7.758;2022-11-23T10:42:58;10.00;68.20
28845;DHT22;15976;47.938;7.758;2022-11-23T10:45:27;10.10;68.20
28845;DHT22;15976;47.938;7.758;2022-11-23T10:47:59;10.20;68.00
28845;DHT22;15976;47.938;7.758;2022-11-23T10:50:29;10.30;67.60
28845;DHT22;15976;47.938;7.758;2022-11-23T10:53:00;10.30;67.30
28845;DHT22;15976;47.938;7.758;2022-11-23T10:55:29;10.40;67.80
28845;DHT22;15976;47.938;7.758;2022-11-23T10:57:57;10.40;66.80
28845;DHT22;15976;47.938;7.758;2022-11-23T11:00:27;10.50;66.70
28845;DHT22;15976;47.938;7.758;2022-11-23T11:02:57;10.60;66.50
28845;DHT22;15976;47.938;7.758;2022-11-23T11:08:24;10.70;66.20
28845;DHT22;15976;47.938;7.758;2022-11-23T11:11:20;10.70;66.00
28845;DHT22;15976;47.938;7.758;2022-11-23T11:13:48;10.80;65.80
28845;DHT22;15976;47.938;7.758;2022-11-23T11:18:45;10.90;65.50
28845;DHT22;15976;47.938;7.758;2022-11-23T11:21:31;10.90;65.30
28845;DHT22;15976;47.938;7.758;2022-11-23T11:27:05;11.10;64.80
28845;DHT22;15976;47.938;7.758;2022-11-23T11:37:37;11.30;64.10
28845;DHT22;15976;47.938;7.758;2022-11-23T11:43:19;11.40;64.10
28845;DHT22;15976;47.938;7.758;2022-11-23T11:45:32;11.40;63.70
28845;DHT22;15976;47.938;7.758;2022-11-23T11:51:38;11.50;63.20
28845;DHT22;15976;47.938;7.758;2022-11-23T11:53:49;11.60;63.10
28845;DHT22;15976;47.938;7.758;2022-11-23T11:59:31;11.70;62.60
28845;DHT22;15976;47.938;7.758;2022-11-23T12:02:23;11.70;62.50
28845;DHT22;15976;47.938;7.758;2022-11-23T12:07:43;11.80;62.30
28845;DHT22;15976;47.938;7.758;2022-11-23T12:10:16;11.90;62.00
28845;DHT22;15976;47.938;7.758;2022-11-23T12:12:44;11.90;61.90
28845;DHT22;15976;47.938;7.758;2022-11-23T12:15:19;12.00;61.90
28845;DHT22;15976;47.938;7.758;2022-11-23T12:25:22;12.10;61.40
28845;DHT22;15976;47.938;7.758;2022-11-23T12:30:19;12.20;61.40
28845;DHT22;15976;47.938;7.758;2022-11-23T12:38:28;12.40;61.90
28845;DHT22;15976;47.938;7.758;2022-11-23T12:49:25;12.60;60.10
28845;DHT22;15976;47.938;7.758;2022-11-23T12:55:48;12.70;60.30
28845;DHT22;15976;47.938;7.758;2022-11-23T12:58:01;12.90;60.60
28845;DHT22;15976;47.938;7.758;2022-11-23T13:00:36;13.00;61.00
28845;DHT22;15976;47.938;7.758;2022-11-23T13:14:02;13.50;59.70
28845;DHT22;15976;47.938;7.758;2022-11-23T13:22:26;13.60;59.50
28845;DHT22;15976;47.938;7.758;2022-11-23T13:31:19;13.80;59.30
28845;DHT22;15976;47.938;7.758;2022-11-23T13:33:51;13.80;59.00
28845;DHT22;15976;47.938;7.758;2022-11-23T13:42:11;13.80;58.20
28845;DHT22;15976;47.938;7.758;2022-11-23T13:44:39;13.80;58.20
28845;DHT22;15976;47.938;7.758;2022-11-23T13:57:21;13.70;57.50
28845;DHT22;15976;47.938;7.758;2022-11-23T13:59:48;13.70;57.50
28845;DHT22;15976;47.938;7.758;2022-11-23T14:02:26;13.70;57.50
28845;DHT22;15976;47.938;7.758;2022-11-23T14:08:16;13.60;57.10
28845;DHT22;15976;47.938;7.758;2022-11-23T14:10:45;13.60;57.00
28845;DHT22;15976;47.938;7.758;2022-11-23T14:13:31;13.60;57.00
28845;DHT22;15976;47.938;7.758;2022-11-23T14:16:00;13.50;56.60
28845;DHT22;15976;47.938;7.758;2022-11-23T14:24:23;13.40;56.40
28845;DHT22;15976;47.938;7.758;2022-11-23T14:30:12;13.40;56.30
28845;DHT22;15976;47.938;7.758;2022-11-23T14:36:14;13.30;56.20
28845;DHT22;15976;47.938;7.758;2022-11-23T14:41:21;13.30;56.20
28845;DHT22;15976;47.938;7.758;2022-11-23T14:43:49;13.30;56.20
28845;DHT22;15976;47.938;7.758;2022-11-23T14:46:21;13.30;56.30
28845;DHT22;15976;47.938;7.758;2022-11-23T14:48:51;13.30;56.00
28845;DHT22;15976;47.938;7.758;2022-11-23T14:51:28;13.30;56.00
28845;DHT22;15976;47.938;7.758;2022-11-23T14:53:59;13.20;55.90
28845;DHT22;15976;47.938;7.758;2022-11-23T14:56:40;13.20;55.70
28845;DHT22;15976;47.938;7.758;2022-11-23T15:01:46;13.20;56.20
28845;DHT22;15976;47.938;7.758;2022-11-23T15:04:23;13.10;55.90
28845;DHT22;15976;47.938;7.758;2022-11-23T15:06:55;13.10;55.70
28845;DHT22;15976;47.938;7.758;2022-11-23T15:14:45;13.00;55.50
28845;DHT22;15976;47.938;7.758;2022-11-23T15:17:13;12.90;55.40
28845;DHT22;15976;47.938;7.758;2022-11-23T15:19:41;12.90;55.40
28845;DHT22;15976;47.938;7.758;2022-11-23T15:22:15;12.90;55.50
28845;DHT22;15976;47.938;7.758;2022-11-23T15:24:43;12.80;55.50
28845;DHT22;15976;47.938;7.758;2022-11-23T15:27:14;12.70;55.30
28845;DHT22;15976;47.938;7.758;2022-11-23T15:29:53;12.60;55.50
28845;DHT22;15976;47.938;7.758;2022-11-23T15:35:06;12.40;55.60
28845;DHT22;15976;47.938;7.758;2022-11-23T15:37:44;12.40;55.80
28845;DHT22;15976;47.938;7.758;2022-11-23T15:40:13;12.30;55.90
28845;DHT22;15976;47.938;7.758;2022-11-23T15:42:42;12.30;56.50
28845;DHT22;15976;47.938;7.758;2022-11-23T15:45:32;12.30;57.10
28845;DHT22;15976;47.938;7.758;2022-11-23T15:48:05;12.30;57.40
28845;DHT22;15976;47.938;7.758;2022-11-23T15:50:52;12.40;57.40
28845;DHT22;15976;47.938;7.758;2022-11-23T15:53:44;12.40;57.50
28845;DHT22;15976;47.938;7.758;2022-11-23T15:58:47;12.40;57.70
28845;DHT22;15976;47.938;7.758;2022-11-23T16:01:16;12.30;57.80
28845;DHT22;15976;47.938;7.758;2022-11-23T16:08:50;11.80;58.40
28845;DHT22;15976;47.938;7.758;2022-11-23T16:11:33;11.70;58.60
28845;DHT22;15976;47.938;7.758;2022-11-23T16:14:18;11.60;59.30
28845;DHT22;15976;47.938;7.758;2022-11-23T16:16:47;11.60;59.40
28845;DHT22;15976;47.938;7.758;2022-11-23T16:19:27;11.60;58.90
28845;DHT22;15976;47.938;7.758;2022-11-23T16:22:01;11.50;59.00
28845;DHT22;15976;47.938;7.758;2022-11-23T16:24:31;11.50;59.10
28845;DHT22;15976;47.938;7.758;2022-11-23T16:27:00;11.40;58.80
28845;DHT22;15976;47.938;7.758;2022-11-23T16:29:36;11.40;58.90
28845;DHT22;15976;47.938;7.758;2022-11-23T16:33:24;11.30;59.40
28845;DHT22;15976;47.938;7.758;2022-11-23T16:36:37;11.30;59.50
28845;DHT22;15976;47.938;7.758;2022-11-23T16:39:04;11.20;59.50
28845;DHT22;15976;47.938;7.758;2022-11-23T16:41:32;11.30;60.40
28845;DHT22;15976;47.938;7.758;2022-11-23T16:43:59;11.20;61.10
28845;DHT22;15976;47.938;7.758;2022-11-23T16:46:26;11.20;62.20
28845;DHT22;15976;47.938;7.758;2022-11-23T16:48:56;11.20;61.40
28845;DHT22;15976;47.938;7.758;2022-11-23T16:51:34;11.20;61.40
28845;DHT22;15976;47.938;7.758;2022-11-23T16:54:07;11.10;61.70
28845;DHT22;15976;47.938;7.758;2022-11-23T16:56:44;11.10;62.00
28845;DHT22;15976;47.938;7.758;2022-11-23T16:59:17;11.10;62.00
28845;DHT22;15976;47.938;7.758;2022-11-23T17:01:46;11.00;61.80
28845;DHT22;15976;47.938;7.758;2022-11-23T17:04:26;11.00;61.70
28845;DHT22;15976;47.938;7.758;2022-11-23T17:06:59;11.00;62.10
28845;DHT22;15976;47.938;7.758;2022-11-23T17:09:27;11.00;62.00
28845;DHT22;15976;47.938;7.758;2022-11-23T17:12:18;11.00;62.30
28845;DHT22;15976;47.938;7.758;2022-11-23T17:14:47;11.00;62.40
28845;DHT22;15976;47.938;7.758;2022-11-23T17:17:20;11.00;62.60
28845;DHT22;15976;47.938;7.758;2022-11-23T17:19:51;11.00;63.00
28845;DHT22;15976;47.938;7.758;2022-11-23T17:22:20;11.00;62.90
28845;DHT22;15976;47.938;7.758;2022-11-23T17:24:55;11.00;63.20
28845;DHT22;15976;47.938;7.758;2022-11-23T17:27:26;11.00;63.40
28845;DHT22;15976;47.938;7.758;2022-11-23T17:30:09;11.00;64.00
28845;DHT22;15976;47.938;7.758;2022-11-23T17:32:36;11.10;64.80
28845;DHT22;15976;47.938;7.758;2022-11-23T17:35:05;11.10;64.90
28845;DHT22;15976;47.938;7.758;2022-11-23T17:37:39;11.10;65.30
28845;DHT22;15976;47.938;7.758;2022-11-23T17:40:37;11.10;65.70
28845;DHT22;15976;47.938;7.758;2022-11-23T17:43:05;11.20;66.10
28845;DHT22;15976;47.938;7.758;2022-11-23T17:45:41;11.10;65.90
28845;DHT22;15976;47.938;7.758;2022-11-23T17:48:27;11.20;66.30
28845;DHT22;15976;47.938;7.758;2022-11-23T17:54:27;11.20;66.60
28845;DHT22;15976;47.938;7.758;2022-11-23T17:56:54;11.20;66.60
28845;DHT22;15976;47.938;7.758;2022-11-23T17:59:27;11.30;66.70
28845;DHT22;15976;47.938;7.758;2022-11-23T18:01:56;11.20;66.70
28845;DHT22;15976;47.938;7.758;2022-11-23T18:04:24;11.20;66.60
28845;DHT22;15976;47.938;7.758;2022-11-23T18:06:52;11.30;66.60
28845;DHT22;15976;47.938;7.758;2022-11-23T18:09:27;11.20;66.60
28845;DHT22;15976;47.938;7.758;2022-11-23T18:11:56;11.20;66.60
28845;DHT22;15976;47.938;7.758;2022-11-23T18:14:23;11.20;66.60
28845;DHT22;15976;47.938;7.758;2022-11-23T18:20:05;11.20;66.90
28845;DHT22;15976;47.938;7.758;2022-11-23T18:22:39;11.10;67.20
28845;DHT22;15976;47.938;7.758;2022-11-23T18:25:10;11.10;67.10
28845;DHT22;15976;47.938;7.758;2022-11-23T18:27:37;11.10;67.30
28845;DHT22;15976;47.938;7.758;2022-11-23T18:30:09;11.00;67.40
28845;DHT22;15976;47.938;7.758;2022-11-23T18:32:37;11.10;67.50
28845;DHT22;15976;47.938;7.758;2022-11-23T18:35:05;11.10;67.70
28845;DHT22;15976;47.938;7.758;2022-11-23T18:37:33;11.20;67.90
28845;DHT22;15976;47.938;7.758;2022-11-23T18:40:30;11.20;68.20
28845;DHT22;15976;47.938;7.758;2022-11-23T18:42:57;11.20;68.30